LIMF 200050Z 34002KT CAVOK 19/14 Q1026 LIMF 200020Z VRB01KT CAVOK 18/14 Q1026 LIMF 192350Z 13003KT CAVOK 18/15 Q1026 LIMF 192320Z 13003KT CAVOK 19/14 Q1026 LIMF 192250Z 31006KT CAVOK 21/14 Q1026 LIMF 192220Z 31005KT CAVOK 22/14 Q1026 LIMF 192150Z 30007KT 9999 FEW075 22/14 Q1026 LIMF 192120Z 30006KT CAVOK 22/13 Q1026 LIMF 192050Z 32004KT CAVOK 21/13 Q1027 LIMF 192020Z 34005KT CAVOK 21/14 Q1026 LIMF 191950Z 33005KT CAVOK 23/13 Q1026 LIMF 191920Z 35005KT CAVOK 23/13 Q1026 LIMF 191850Z 03003KT CAVOK 24/12 Q1025 LIMF 191820Z 04003KT CAVOK 25/12 Q1025 LIMF 191750Z 03005KT CAVOK 26/12 Q1025 LIMF 191720Z 02005KT CAVOK 26/11 Q1025 LIMF 191650Z 04004KT 340V070 CAVOK 26/12 Q1025 LIMF 191620Z VRB02KT CAVOK 27/11 Q1025 LIMF 191550Z VRB01KT CAVOK 27/11 Q1025 LIMF 191520Z VRB02KT CAVOK 27/11 Q1025 LIMF 191450Z VRB04KT CAVOK 26/10 Q1025 LIMF 191420Z 03004KT 330V080 CAVOK 26/10 Q1026 LIMF 191350Z VRB04KT CAVOK 26/10 Q1026 LIMF 191320Z VRB03KT CAVOK 26/10 Q1026 LIMF 191250Z VRB04KT CAVOK 25/09 Q1026 LIMF 191220Z 10004KT 010V170 CAVOK 25/09 Q1026 LIMF 191150Z VRB04KT CAVOK 25/09 Q1027 LIMF 191120Z 12005KT 090V150 CAVOK 24/09 Q1027 LIMF 191050Z 05006KT 010V120 CAVOK 24/09 Q1027 LIMF 191020Z 06004KT 310V110 CAVOK 24/08 Q1027 LIMF 190950Z 05006KT 020V090 CAVOK 24/08 Q1028 LIMF 190920Z 07006KT 030V120 CAVOK 24/09 Q1028 LIMF 190850Z 06006KT 020V100 CAVOK 23/08 Q1028 LIMF 190820Z 06006KT 030V100 CAVOK 22/07 Q1028 LIMF 190750Z 05006KT 010V080 CAVOK 22/08 Q1028 LIMF 190720Z 05005KT 010V090 CAVOK 22/09 Q1027 LIMF 190650Z 06005KT CAVOK 22/12 Q1027 LIMF 190620Z 08003KT 9999 BKN100 20/14 Q1027 LIMF 190550Z 36005KT 9999 BKN085 20/15 Q1027 LIMF 190520Z 33006KT 300V360 9999 SCT040 BKN080 20/14 Q1027 LIMF 190450Z 30007KT 9999 SCT040 BKN080 20/14 Q1027 LIMF 190420Z 31006KT 9999 SCT050 BKN090 20/15 Q1026 LIMF 190350Z 30006KT 9999 SCT070 BKN100 20/15 Q1026 LIMF 190320Z 32005KT 9999 BKN070 20/13 Q1026 LIMF 190250Z 33006KT 9999 BKN070 20/13 Q1026 LIMF 190220Z 31007KT 9999 BKN070 20/14 Q1026 LIMF 190150Z 33007KT 9999 SCT110 20/14 Q1026 LIMF 190120Z 33008KT 9999 SCT110 20/15 Q1025 LIMF 190050Z 35008KT CAVOK 19/16 Q1025 LIMF 190020Z 35006KT 9999 BKN110 19/17 Q1025 LIMF 182350Z 35008KT 9999 BKN100 20/17 Q1025 LIMF 182320Z 30005KT 9999 BKN090 20/18 Q1025 LIMF 182250Z 31006KT 9999 -RA BKN080 20/16 Q1025 LIMF 182220Z 33008KT 9999 -SHRA VCTS FEW035CB SCT060 BKN100 20/16 Q1025 RETS LIMF 182150Z 34008KT 320V020 9999 -TSRA SCT030CB BKN060 21/17 Q1025 LIMF 182120Z 31010KT 9999 -TSRA FEW035CB BKN060 22/17 Q1024 LIMF 182050Z 36006KT 330V040 9999 FEW035CB BKN060 24/16 Q1024 LIMF 182020Z 34003KT 9999 FEW035CB BKN060 24/16 Q1023 LIMF 181950Z 02004KT 9999 VCTS FEW035CB BKN060 24/16 Q1023 LIMF 181920Z 03005KT 360V060 9999 FEW035CB BKN065 25/15 Q1022 LIMF 181850Z 06005KT 9999 FEW035CB SCT070 25/15 Q1021 LIMF 181820Z 07006KT 9999 FEW035CB SCT070 25/15 Q1021 LIMF 181750Z 07005KT 9999 VCTS FEW035CB SCT040 BKN150 26/16 Q1020 LIMF 181720Z 07005KT 9999 VCTS FEW035CB SCT040 BKN150 26/16 Q1020 LIMF 181650Z 08005KT 9999 FEW035TCU SCT040 27/16 Q1020 LIMF 181620Z 07005KT 030V100 9999 FEW035TCU SCT045 28/16 Q1020 LIMF 181550Z 06006KT 040V100 9999 SCT045 28/15 Q1020 LIMF 181520Z 04004KT 320V090 9999 FEW045 28/15 Q1020 LIMF 181450Z 08006KT 9999 SCT035 28/16 Q1020 LIMF 181420Z 08007KT 020V120 9999 SCT035 28/16 Q1020 LIMF 181350Z 04007KT 010V070 9999 SCT035 28/15 Q1021 LIMF 181320Z 07008KT 020V110 9999 SCT035 28/15 Q1021

METAR Messwerte "TORINO/CASELLE" LIMF

Zurück zur Übersicht

Ortsname
Ländercode / m ü. NN
Zeit Temperatur Taupunkt Rel.
Luftfeuchte
Luftdruck:
Altimeter
NN
Station
Wind in Beaufort
(Knoten)
Sichtweite
(Meter)
Wolken
(Meter über Grund)
Wettererscheinung
TORINO/CASELLE
IT 295
Fr 20.05. 02:50191473 %1026
1026
991
NNW 1 (2)>= 10000Nicht signifikant 
TORINO/CASELLE
IT 295
Fr 20.05. 02:20181477 %1026
1026
991
Uml 1 (1)>= 10000Nicht signifikant 
TORINO/CASELLE
IT 295
Fr 20.05. 01:50181583 %1026
1026
991
SO 2 (3)>= 10000Nicht signifikant 
TORINO/CASELLE
IT 295
Fr 20.05. 01:20191473 %1026
1026
991
SO 2 (3)>= 10000Nicht signifikant 
TORINO/CASELLE
IT 295
Fr 20.05. 00:50211464 %1026
1025
991
NW 2 (6)>= 10000Nicht signifikant 
TORINO/CASELLE
IT 295
Fr 20.05. 00:20221460 %1026
1025
991
NW 2 (5)>= 10000Nicht signifikant 
TORINO/CASELLE
IT 295
Do 19.05. 23:50221460 %1026
1025
991
WNW 3 (7)>= 10000Leicht bewölkt (2300) 
TORINO/CASELLE
IT 295
Do 19.05. 23:20221357 %1026
1025
991
WNW 2 (6)>= 10000Nicht signifikant 
TORINO/CASELLE
IT 295
Do 19.05. 22:50211360 %1027
1026
992
NW 2 (4)>= 10000Nicht signifikant 
TORINO/CASELLE
IT 295
Do 19.05. 22:20211464 %1026
1025
991
NNW 2 (5)>= 10000Nicht signifikant 
TORINO/CASELLE
IT 295
Do 19.05. 21:50231353 %1026
1025
991
NNW 2 (5)>= 10000Nicht signifikant 
TORINO/CASELLE
IT 295
Do 19.05. 21:20231353 %1026
1025
991
N 2 (5)>= 10000Nicht signifikant 
TORINO/CASELLE
IT 295
Do 19.05. 20:50241247 %1025
1024
990
NNO 2 (3)>= 10000Nicht signifikant 
TORINO/CASELLE
IT 295
Do 19.05. 20:20251244 %1025
1024
990
NO 2 (3)>= 10000Nicht signifikant 
TORINO/CASELLE
IT 295
Do 19.05. 19:50261242 %1025
1024
990
NNO 2 (5)>= 10000Nicht signifikant 
TORINO/CASELLE
IT 295
Do 19.05. 19:20261139 %1025
1024
990
NNO 2 (5)>= 10000Nicht signifikant 
TORINO/CASELLE
IT 295
Do 19.05. 18:50261242 %1025
1024
990
NO 2 (4)
NNW - ONO
>= 10000Nicht signifikant 
TORINO/CASELLE
IT 295
Do 19.05. 18:20271137 %1025
1024
990
Uml 1 (2)>= 10000Nicht signifikant 
TORINO/CASELLE
IT 295
Do 19.05. 17:50271137 %1025
1024
990
Uml 1 (1)>= 10000Nicht signifikant 
TORINO/CASELLE
IT 295
Do 19.05. 17:20271137 %1025
1024
990
Uml 1 (2)>= 10000Nicht signifikant 
TORINO/CASELLE
IT 295
Do 19.05. 16:50261037 %1025
1024
990
Uml 2 (4)>= 10000Nicht signifikant 
TORINO/CASELLE
IT 295
Do 19.05. 16:20261037 %1026
1025
991
NNO 2 (4)
NNW - O
>= 10000Nicht signifikant 
TORINO/CASELLE
IT 295
Do 19.05. 15:50261037 %1026
1025
991
Uml 2 (4)>= 10000Nicht signifikant 
TORINO/CASELLE
IT 295
Do 19.05. 15:20261037 %1026
1025
991
Uml 2 (3)>= 10000Nicht signifikant 
TORINO/CASELLE
IT 295
Do 19.05. 14:5025936 %1026
1025
991
Uml 2 (4)>= 10000Nicht signifikant 
TORINO/CASELLE
IT 295
Do 19.05. 14:2025936 %1026
1025
991
O 2 (4)
N - S
>= 10000Nicht signifikant 
TORINO/CASELLE
IT 295
Do 19.05. 13:5025936 %1027
1026
992
Uml 2 (4)>= 10000Nicht signifikant 
TORINO/CASELLE
IT 295
Do 19.05. 13:2024938 %1027
1026
992
OSO 2 (5)
O - SSO
>= 10000Nicht signifikant 
TORINO/CASELLE
IT 295
Do 19.05. 12:5024938 %1027
1026
992
NO 2 (6)
N - OSO
>= 10000Nicht signifikant 
TORINO/CASELLE
IT 295
Do 19.05. 12:2024836 %1027
1026
992
ONO 2 (4)
NW - OSO
>= 10000Nicht signifikant 
TORINO/CASELLE
IT 295
Do 19.05. 11:5024836 %1028
1027
993
NO 2 (6)
NNO - O
>= 10000Nicht signifikant 
TORINO/CASELLE
IT 295
Do 19.05. 11:2024938 %1028
1027
993
ONO 2 (6)
NNO - OSO
>= 10000Nicht signifikant 
TORINO/CASELLE
IT 295
Do 19.05. 10:5023838 %1028
1027
993
ONO 2 (6)
NNO - O
>= 10000Nicht signifikant 
TORINO/CASELLE
IT 295
Do 19.05. 10:2022738 %1028
1027
993
ONO 2 (6)
NNO - O
>= 10000Nicht signifikant 
TORINO/CASELLE
IT 295
Do 19.05. 09:5022841 %1028
1027
993
NO 2 (6)
N - O
>= 10000Nicht signifikant 
TORINO/CASELLE
IT 295
Do 19.05. 09:2022943 %1027
1026
992
NO 2 (5)
N - O
>= 10000Nicht signifikant 
TORINO/CASELLE
IT 295
Do 19.05. 08:50221253 %1027
1026
992
ONO 2 (5)>= 10000Nicht signifikant 
TORINO/CASELLE
IT 295
Do 19.05. 08:20201468 %1027
1026
992
O 2 (3)>= 10000Stark bewölkt (3000) 
TORINO/CASELLE
IT 295
Do 19.05. 07:50201573 %1027
1026
992
N 2 (5)>= 10000Stark bewölkt (2600) 
TORINO/CASELLE
IT 295
Do 19.05. 07:20201468 %1027
1026
992
NNW 2 (6)
WNW - N
>= 10000Stark bewölkt (2400)
Wolkig (1200)
 
TORINO/CASELLE
IT 295
Do 19.05. 06:50201468 %1027
1026
992
WNW 3 (7)>= 10000Stark bewölkt (2400)
Wolkig (1200)
 
TORINO/CASELLE
IT 295
Do 19.05. 06:20201573 %1026
1025
991
NW 2 (6)>= 10000Stark bewölkt (2700)
Wolkig (1500)
 
TORINO/CASELLE
IT 295
Do 19.05. 05:50201573 %1026
1025
991
WNW 2 (6)>= 10000Stark bewölkt (3000)
Wolkig (2100)
 
TORINO/CASELLE
IT 295
Do 19.05. 05:20201364 %1026
1025
991
NW 2 (5)>= 10000Stark bewölkt (2100) 
TORINO/CASELLE
IT 295
Do 19.05. 04:50201364 %1026
1025
991
NNW 2 (6)>= 10000Stark bewölkt (2100) 
TORINO/CASELLE
IT 295
Do 19.05. 04:20201468 %1026
1025
991
NW 3 (7)>= 10000Stark bewölkt (2100) 
TORINO/CASELLE
IT 295
Do 19.05. 03:50201468 %1026
1025
991
NNW 3 (7)>= 10000Wolkig (3400) 
TORINO/CASELLE
IT 295
Do 19.05. 03:20201573 %1025
1024
990
NNW 3 (8)>= 10000Wolkig (3400) 
TORINO/CASELLE
IT 295
Do 19.05. 02:50191683 %1025
1025
990
N 3 (8)>= 10000Nicht signifikant 
TORINO/CASELLE
IT 295
Do 19.05. 02:20191788 %1025
1025
990
N 2 (6)>= 10000Stark bewölkt (3400) 
TORINO/CASELLE
IT 295
Do 19.05. 01:50201783 %1025
1024
990
N 3 (8)>= 10000Stark bewölkt (3000) 
TORINO/CASELLE
IT 295
Do 19.05. 01:20201888 %1025
1024
990
WNW 2 (5)>= 10000Stark bewölkt (2700) 
TORINO/CASELLE
IT 295
Do 19.05. 00:50201678 %1025
1024
990
NW 2 (6)>= 10000Stark bewölkt (2400)Regen (schwach)
TORINO/CASELLE
IT 295
Do 19.05. 00:20201678 %1025
1024
990
NNW 3 (8)>= 10000Stark bewölkt (3000)
Wolkig (1800)
Leicht bewölkt Cb (1100)
Regen-Schauer (schwach)
TORINO/CASELLE
IT 295
Mi 18.05. 23:50211778 %1025
1024
990
NNW 3 (8)
NW - NNO
>= 10000Stark bewölkt (1800)
Wolkig Cb (910)
Gewitter mit Regen (schwach)
TORINO/CASELLE
IT 295
Mi 18.05. 23:20221773 %1024
1023
989
NW 3 (10)>= 10000Stark bewölkt (1800)
Leicht bewölkt Cb (1100)
Gewitter mit Regen (schwach)
TORINO/CASELLE
IT 295
Mi 18.05. 22:50241661 %1024
1023
989
N 2 (6)
NNW - NO
>= 10000Stark bewölkt (1800)
Leicht bewölkt Cb (1100)
 
TORINO/CASELLE
IT 295
Mi 18.05. 22:20241661 %1023
1022
988
NNW 2 (3)>= 10000Stark bewölkt (1800)
Leicht bewölkt Cb (1100)
 
TORINO/CASELLE
IT 295
Mi 18.05. 21:50241661 %1023
1022
988
NNO 2 (4)>= 10000Stark bewölkt (1800)
Leicht bewölkt Cb (1100)
 
TORINO/CASELLE
IT 295
Mi 18.05. 21:20251554 %1022
1021
987
NNO 2 (5)
N - ONO
>= 10000Stark bewölkt (2000)
Leicht bewölkt Cb (1100)
 
TORINO/CASELLE
IT 295
Mi 18.05. 20:50251554 %1021
1020
986
ONO 2 (5)>= 10000Wolkig (2100)
Leicht bewölkt Cb (1100)
 
TORINO/CASELLE
IT 295
Mi 18.05. 20:20251554 %1021
1020
986
ONO 2 (6)>= 10000Wolkig (2100)
Leicht bewölkt Cb (1100)
 
TORINO/CASELLE
IT 295
Mi 18.05. 19:50261654 %1020
1019
985
ONO 2 (5)>= 10000Stark bewölkt (4600)
Wolkig (1200)
Leicht bewölkt Cb (1100)
 
TORINO/CASELLE
IT 295
Mi 18.05. 19:20261654 %1020
1019
985
ONO 2 (5)>= 10000Stark bewölkt (4600)
Wolkig (1200)
Leicht bewölkt Cb (1100)
 
TORINO/CASELLE
IT 295
Mi 18.05. 18:50271651 %1020
1019
985
O 2 (5)>= 10000Wolkig (1200)
Leicht bewölkt (1100)
 
TORINO/CASELLE
IT 295
Mi 18.05. 18:20281648 %1020
1019
985
ONO 2 (5)
NNO - O
>= 10000Wolkig (1400)
Leicht bewölkt (1100)
 
TORINO/CASELLE
IT 295
Mi 18.05. 17:50281545 %1020
1019
985
ONO 2 (6)
NO - O
>= 10000Wolkig (1400) 
TORINO/CASELLE
IT 295
Mi 18.05. 17:20281545 %1020
1019
985
NO 2 (4)
NW - O
>= 10000Leicht bewölkt (1400) 
TORINO/CASELLE
IT 295
Mi 18.05. 16:50281648 %1020
1019
985
O 2 (6)>= 10000Wolkig (1100) 
TORINO/CASELLE
IT 295
Mi 18.05. 16:20281648 %1020
1019
985
O 3 (7)
NNO - OSO
>= 10000Wolkig (1100) 
TORINO/CASELLE
IT 295
Mi 18.05. 15:50281545 %1021
1020
986
NO 3 (7)
N - ONO
>= 10000Wolkig (1100) 
TORINO/CASELLE
IT 295
Mi 18.05. 15:20281545 %1021
1020
986
ONO 3 (8)
NNO - OSO
>= 10000Wolkig (1100) 

Altimeter: Einstellung am Altimeter (Höhenmesser), die Höhe 0 muss auf diesen Luftdruckwert zeigen, damit das Gerät die Stationshöhe richtig anzeigt.

NN: Luftdruck reduziert auf "Normal Null", auf Meereshöhe, dieser von der Temperatur abhängige Wert wird bisweilen unkorrekt einfach als "Luftdruck" bezeichnet. Eigentlich nur eine fiktive Größe, die es erlaubt, Stationen auf unterschiedlichen Höhen miteinander zu vergleichen.

Station: Realer Luftdruck an der Station.